Time,TemperatureF,DewpointF,PressureIn,WindDirection,WindDirectionDegrees,WindSpeedMPH,WindSpeedGustMPH,Humidity,HourlyPrecipIn,Conditions,Clouds,dailyrainin,SoftwareType,DateUTC
2013-11-15 00:00:00,31.1,22.1,30.22,SSE,158,0.0,0.0,69,0.00,,,0.00,WUHU216HW,2013-11-15 05:00:00,
2013-11-15 00:05:00,31.2,22.2,30.21,SSE,158,0.0,0.0,69,0.00,,,0.00,WUHU216HW,2013-11-15 05:05:00,
2013-11-15 00:10:00,31.1,22.1,30.21,SSE,158,0.0,0.0,69,0.00,,,0.00,WUHU216HW,2013-11-15 05:10:00,
2013-11-15 00:15:00,31.1,22.1,30.21,SSE,158,0.0,0.0,69,0.00,,,0.00,WUHU216HW,2013-11-15 05:15:00,
2013-11-15 00:21:00,31.2,22.2,30.21,SSE,158,0.0,0.0,69,0.00,,,0.00,WUHU216HW,2013-11-15 05:21:00,
2013-11-15 00:27:00,31.2,22.2,30.21,ESE,113,0.0,0.0,69,0.00,,,0.00,WUHU216HW,2013-11-15 05:27:00,
2013-11-15 00:32:00,31.6,22.6,30.22,ESE,113,0.0,0.0,69,0.00,,,0.00,WUHU216HW,2013-11-15 05:32:00,
2013-11-15 00:37:00,31.8,22.8,30.22,ESE,113,0.0,0.0,69,0.00,,,0.00,WUHU216HW,2013-11-15 05:37:00,
2013-11-15 00:42:00,31.8,22.8,30.22,ESE,113,0.0,0.0,69,0.00,,,0.00,WUHU216HW,2013-11-15 05:42:00,
2013-11-15 00:47:00,31.6,22.6,30.22,ESE,113,0.0,0.0,69,0.00,,,0.00,WUHU216HW,2013-11-15 05:47:00,
2013-11-15 00:53:00,31.6,22.6,30.22,ESE,113,0.0,0.0,69,0.00,,,0.00,WUHU216HW,2013-11-15 05:53:00,
2013-11-15 00:59:00,31.6,22.6,30.22,ESE,113,0.0,0.0,69,0.00,,,0.00,WUHU216HW,2013-11-15 05:59:00,
2013-11-15 01:04:00,31.6,22.6,30.22,ESE,113,0.0,0.0,69,0.00,,,0.00,WUHU216HW,2013-11-15 06:04:00,
2013-11-15 01:10:00,31.8,23.1,30.22,ESE,113,0.0,0.0,70,0.00,,,0.00,WUHU216HW,2013-11-15 06:10:00,
2013-11-15 01:15:00,31.8,23.1,30.22,ESE,113,0.0,0.0,70,0.00,,,0.00,WUHU216HW,2013-11-15 06:15:00,
2013-11-15 01:21:00,31.8,23.1,30.22,ESE,113,0.0,0.0,70,0.00,,,0.00,WUHU216HW,2013-11-15 06:21:00,
2013-11-15 01:26:00,31.8,23.1,30.21,ESE,113,0.0,0.0,70,0.00,,,0.00,WUHU216HW,2013-11-15 06:26:00,
2013-11-15 01:31:00,31.8,22.8,30.21,ESE,113,0.0,0.0,69,0.00,,,0.00,WUHU216HW,2013-11-15 06:31:00,
2013-11-15 01:36:00,31.6,23.0,30.21,ESE,113,0.0,0.0,70,0.00,,,0.00,WUHU216HW,2013-11-15 06:36:00,
2013-11-15 01:41:00,31.6,23.0,30.21,ESE,113,0.0,0.0,70,0.00,,,0.00,WUHU216HW,2013-11-15 06:41:00,
2013-11-15 01:46:00,31.6,23.0,30.22,ESE,113,0.0,0.0,70,0.00,,,0.00,WUHU216HW,2013-11-15 06:46:00,
2013-11-15 01:51:00,31.8,23.1,30.21,ESE,113,0.0,0.0,70,0.00,,,0.00,WUHU216HW,2013-11-15 06:51:00,
2013-11-15 01:57:00,31.6,22.6,30.21,ESE,113,0.0,0.0,69,0.00,,,0.00,WUHU216HW,2013-11-15 06:57:00,
2013-11-15 02:03:00,31.6,22.6,30.22,ESE,113,0.0,0.0,69,0.00,,,0.00,WUHU216HW,2013-11-15 07:03:00,
2013-11-15 02:08:00,31.4,22.4,30.22,ESE,113,0.0,0.0,69,0.00,,,0.00,WUHU216HW,2013-11-15 07:08:00,
2013-11-15 02:14:00,31.2,22.2,30.22,ESE,113,0.0,0.0,69,0.00,,,0.00,WUHU216HW,2013-11-15 07:14:00,
2013-11-15 02:20:00,31.2,22.2,30.22,ESE,113,0.0,0.0,69,0.00,,,0.00,WUHU216HW,2013-11-15 07:20:00,
2013-11-15 02:25:00,31.2,22.2,30.22,ESE,113,0.0,0.0,69,0.00,,,0.00,WUHU216HW,2013-11-15 07:25:00,
2013-11-15 02:30:00,31.2,22.2,30.22,ESE,113,0.0,0.0,69,0.00,,,0.00,WUHU216HW,2013-11-15 07:30:00,
2013-11-15 02:36:00,31.2,22.2,30.22,ESE,113,0.0,0.0,69,0.00,,,0.00,WUHU216HW,2013-11-15 07:36:00,
2013-11-15 02:42:00,31.2,22.2,30.23,ESE,113,0.0,0.0,69,0.00,,,0.00,WUHU216HW,2013-11-15 07:42:00,
2013-11-15 02:48:00,31.4,22.4,30.23,ESE,113,0.0,0.0,69,0.00,,,0.00,WUHU216HW,2013-11-15 07:48:00,
2013-11-15 02:53:00,31.2,22.2,30.23,ESE,113,0.0,0.0,69,0.00,,,0.00,WUHU216HW,2013-11-15 07:53:00,
2013-11-15 02:58:00,31.2,22.2,30.22,ESE,113,0.0,0.0,69,0.00,,,0.00,WUHU216HW,2013-11-15 07:58:00,
2013-11-15 03:04:00,31.2,22.2,30.23,ESE,113,0.0,0.0,69,0.00,,,0.00,WUHU216HW,2013-11-15 08:04:00,
2013-11-15 03:09:00,31.2,22.6,30.23,ESE,113,0.0,0.0,70,0.00,,,0.00,WUHU216HW,2013-11-15 08:09:00,
2013-11-15 03:15:00,31.2,22.6,30.23,ESE,113,0.0,0.0,70,0.00,,,0.00,WUHU216HW,2013-11-15 08:15:00,
2013-11-15 03:20:00,31.2,22.6,30.23,ESE,113,0.0,0.0,70,0.00,,,0.00,WUHU216HW,2013-11-15 08:20:00,
2013-11-15 03:25:00,31.2,22.6,30.22,ESE,113,0.0,0.0,70,0.00,,,0.00,WUHU216HW,2013-11-15 08:25:00,
2013-11-15 03:36:00,31.2,22.9,30.22,ESE,113,0.0,0.0,71,0.00,,,0.00,WUHU216HW,2013-11-15 08:36:00,
2013-11-15 03:42:00,31.2,22.9,30.22,ESE,113,0.0,0.0,71,0.00,,,0.00,WUHU216HW,2013-11-15 08:42:00,
2013-11-15 03:47:00,31.2,22.9,30.22,ESE,113,0.0,0.0,71,0.00,,,0.00,WUHU216HW,2013-11-15 08:47:00,
2013-11-15 03:53:00,31.4,23.1,30.22,ESE,113,0.0,0.0,71,0.00,,,0.00,WUHU216HW,2013-11-15 08:53:00,
2013-11-15 03:59:00,31.2,22.9,30.22,ESE,113,0.0,0.0,71,0.00,,,0.00,WUHU216HW,2013-11-15 08:59:00,
2013-11-15 04:05:00,31.4,23.1,30.22,ESE,113,0.0,0.0,71,0.00,,,0.00,WUHU216HW,2013-11-15 09:05:00,
2013-11-15 04:10:00,31.2,22.9,30.22,ESE,113,0.0,0.0,71,0.00,,,0.00,WUHU216HW,2013-11-15 09:10:00,
2013-11-15 04:15:00,31.2,22.9,30.22,ESE,113,0.0,0.0,71,0.00,,,0.00,WUHU216HW,2013-11-15 09:15:00,
2013-11-15 04:21:00,31.2,22.9,30.22,ESE,113,0.0,0.0,71,0.00,,,0.00,WUHU216HW,2013-11-15 09:21:00,
2013-11-15 04:27:00,31.2,22.9,30.22,ESE,113,0.0,0.0,71,0.00,,,0.00,WUHU216HW,2013-11-15 09:27:00,
2013-11-15 04:33:00,31.2,22.9,30.22,ESE,113,0.0,0.0,71,0.00,,,0.00,WUHU216HW,2013-11-15 09:33:00,
2013-11-15 04:38:00,31.2,22.9,30.22,ESE,113,0.0,0.0,71,0.00,,,0.00,WUHU216HW,2013-11-15 09:38:00,
2013-11-15 04:43:00,31.2,22.9,30.22,ESE,113,0.0,0.0,71,0.00,,,0.00,WUHU216HW,2013-11-15 09:43:00,
2013-11-15 04:49:00,31.2,23.2,30.22,ESE,113,0.0,0.0,72,0.00,,,0.00,WUHU216HW,2013-11-15 09:49:00,
2013-11-15 04:54:00,31.2,23.2,30.23,ESE,113,0.0,0.0,72,0.00,,,0.00,WUHU216HW,2013-11-15 09:54:00,
2013-11-15 05:00:00,31.6,23.6,30.23,SE,135,0.0,0.0,72,0.00,,,0.00,WUHU216HW,2013-11-15 10:00:00,
2013-11-15 05:06:00,31.8,23.8,30.23,SE,135,0.0,0.0,72,0.00,,,0.00,WUHU216HW,2013-11-15 10:06:00,
2013-11-15 05:11:00,31.8,23.8,30.23,SE,135,0.0,0.0,72,0.00,,,0.00,WUHU216HW,2013-11-15 10:11:00,
2013-11-15 05:17:00,32.1,24.1,30.23,SE,135,0.0,0.0,72,0.00,,,0.00,WUHU216HW,2013-11-15 10:17:00,
2013-11-15 05:22:00,32.1,24.1,30.23,SE,135,0.0,0.0,72,0.00,,,0.00,WUHU216HW,2013-11-15 10:22:00,
2013-11-15 05:27:00,32.1,23.8,30.23,SE,135,0.0,0.0,71,0.00,,,0.00,WUHU216HW,2013-11-15 10:27:00,
2013-11-15 05:32:00,32.1,23.8,30.23,SE,135,0.0,0.0,71,0.00,,,0.00,WUHU216HW,2013-11-15 10:32:00,
2013-11-15 05:37:00,32.1,23.8,30.23,SE,135,0.0,0.0,71,0.00,,,0.00,WUHU216HW,2013-11-15 10:37:00,
2013-11-15 05:42:00,32.1,23.8,30.23,SE,135,0.0,0.0,71,0.00,,,0.00,WUHU216HW,2013-11-15 10:42:00,
2013-11-15 05:48:00,32.0,23.6,30.23,ESE,113,0.0,0.0,71,0.00,,,0.00,WUHU216HW,2013-11-15 10:48:00,
2013-11-15 05:53:00,32.1,23.8,30.23,ESE,113,0.0,0.0,71,0.00,,,0.00,WUHU216HW,2013-11-15 10:53:00,
2013-11-15 05:58:00,32.1,23.8,30.23,ESE,113,0.0,0.0,71,0.00,,,0.00,WUHU216HW,2013-11-15 10:58:00,
2013-11-15 06:03:00,32.1,23.8,30.23,ESE,113,0.0,0.0,71,0.00,,,0.00,WUHU216HW,2013-11-15 11:03:00,
2013-11-15 06:08:00,32.1,23.5,30.23,ESE,113,0.0,0.0,70,0.00,,,0.00,WUHU216HW,2013-11-15 11:08:00,
2013-11-15 06:13:00,32.0,23.6,30.24,ESE,113,0.0,0.0,71,0.00,,,0.00,WUHU216HW,2013-11-15 11:13:00,
2013-11-15 06:19:00,31.8,23.5,30.24,ESE,113,0.0,0.0,71,0.00,,,0.00,WUHU216HW,2013-11-15 11:19:00,
2013-11-15 06:24:00,31.8,23.5,30.24,ESE,113,0.0,0.0,71,0.00,,,0.00,WUHU216HW,2013-11-15 11:24:00,
2013-11-15 06:29:00,31.8,23.5,30.24,ESE,113,0.0,0.0,71,0.00,,,0.00,WUHU216HW,2013-11-15 11:29:00,
2013-11-15 06:35:00,31.8,23.5,30.24,ESE,113,0.0,0.0,71,0.00,,,0.00,WUHU216HW,2013-11-15 11:35:00,
2013-11-15 06:40:00,31.8,23.1,30.24,ESE,113,0.0,0.0,70,0.00,,,0.00,WUHU216HW,2013-11-15 11:40:00,
2013-11-15 06:45:00,31.8,23.5,30.23,ESE,113,0.0,0.0,71,0.00,,,0.00,WUHU216HW,2013-11-15 11:45:00,
2013-11-15 06:51:00,31.8,23.5,30.24,ESE,113,0.0,0.0,71,0.00,,,0.00,WUHU216HW,2013-11-15 11:51:00,
2013-11-15 06:56:00,31.8,23.5,30.24,ESE,113,0.0,0.0,71,0.00,,,0.00,WUHU216HW,2013-11-15 11:56:00,
2013-11-15 07:01:00,31.8,23.5,30.24,ESE,113,0.0,0.0,71,0.00,,,0.00,WUHU216HW,2013-11-15 12:01:00,
2013-11-15 07:06:00,31.8,23.5,30.24,ESE,113,0.0,0.0,71,0.00,,,0.00,WUHU216HW,2013-11-15 12:06:00,
2013-11-15 07:12:00,31.8,23.5,30.24,ESE,113,0.0,0.0,71,0.00,,,0.00,WUHU216HW,2013-11-15 12:12:00,
2013-11-15 07:17:00,31.8,23.8,30.24,ESE,113,0.0,0.0,72,0.00,,,0.00,WUHU216HW,2013-11-15 12:17:00,
2013-11-15 07:23:00,31.8,23.8,30.24,ESE,113,0.0,0.0,72,0.00,,,0.00,WUHU216HW,2013-11-15 12:23:00,
2013-11-15 07:28:00,32.1,24.1,30.24,ESE,113,0.0,0.0,72,0.00,,,0.00,WUHU216HW,2013-11-15 12:28:00,
2013-11-15 07:33:00,32.1,24.1,30.25,ESE,113,0.0,0.0,72,0.00,,,0.00,WUHU216HW,2013-11-15 12:33:00,
2013-11-15 07:39:00,32.7,24.6,30.25,NE,45,0.0,0.0,72,0.00,,,0.00,WUHU216HW,2013-11-15 12:39:00,
2013-11-15 07:45:00,33.0,24.9,30.25,NE,45,0.0,0.0,72,0.00,,,0.00,WUHU216HW,2013-11-15 12:45:00,
2013-11-15 07:51:00,33.4,25.3,30.25,NE,45,0.0,0.0,72,0.00,,,0.00,WUHU216HW,2013-11-15 12:51:00,
2013-11-15 07:56:00,34.3,25.8,30.25,NE,45,0.0,0.0,71,0.00,,,0.00,WUHU216HW,2013-11-15 12:56:00,
2013-11-15 08:01:00,34.7,26.2,30.25,NE,45,0.0,0.0,71,0.00,,,0.00,WUHU216HW,2013-11-15 13:01:00,
2013-11-15 08:07:00,35.4,26.6,30.25,NE,45,0.0,0.0,70,0.00,,,0.00,WUHU216HW,2013-11-15 13:07:00,
2013-11-15 08:13:00,36.1,27.3,30.25,NE,45,0.0,0.0,70,0.00,,,0.00,WUHU216HW,2013-11-15 13:13:00,
2013-11-15 08:18:00,36.5,27.3,30.25,NE,45,0.0,0.0,69,0.00,,,0.00,WUHU216HW,2013-11-15 13:18:00,
2013-11-15 08:23:00,37.0,27.8,30.25,NE,45,0.0,0.0,69,0.00,,,0.00,WUHU216HW,2013-11-15 13:23:00,
2013-11-15 08:29:00,37.5,27.9,30.25,NE,45,0.0,0.0,68,0.00,,,0.00,WUHU216HW,2013-11-15 13:29:00,
2013-11-15 08:34:00,38.4,28.0,30.25,East,90,0.0,0.0,66,0.00,,,0.00,WUHU216HW,2013-11-15 13:34:00,
2013-11-15 08:40:00,39.0,28.1,30.25,SE,135,0.0,0.0,65,0.00,,,0.00,WUHU216HW,2013-11-15 13:40:00,
2013-11-15 08:46:00,39.7,28.4,30.26,ENE,68,0.0,0.0,64,0.00,,,0.00,WUHU216HW,2013-11-15 13:46:00,
2013-11-15 08:51:00,40.1,28.0,30.26,ENE,68,0.0,0.0,62,0.00,,,0.00,WUHU216HW,2013-11-15 13:51:00,
2013-11-15 08:56:00,41.0,28.5,30.26,ENE,68,0.0,0.0,61,0.00,,,0.00,WUHU216HW,2013-11-15 13:56:00,
2013-11-15 09:02:00,41.5,28.7,30.25,SE,135,0.0,0.0,60,0.00,,,0.00,WUHU216HW,2013-11-15 14:02:00,
2013-11-15 09:08:00,42.0,28.7,30.25,East,90,0.0,0.0,59,0.00,,,0.00,WUHU216HW,2013-11-15 14:08:00,
2013-11-15 09:13:00,42.9,29.5,30.25,East,90,0.0,0.0,59,0.00,,,0.00,WUHU216HW,2013-11-15 14:13:00,
2013-11-15 09:18:00,43.7,29.8,30.25,ESE,113,0.0,0.0,58,0.00,,,0.00,WUHU216HW,2013-11-15 14:18:00,
2013-11-15 09:24:00,44.4,29.6,30.25,NE,45,0.0,0.0,56,0.00,,,0.00,WUHU216HW,2013-11-15 14:24:00,
2013-11-15 09:29:00,44.6,29.8,30.25,ESE,113,0.0,0.0,56,0.00,,,0.00,WUHU216HW,2013-11-15 14:29:00,
2013-11-15 09:35:00,44.9,29.7,30.25,ENE,68,0.0,0.0,55,0.00,,,0.00,WUHU216HW,2013-11-15 14:35:00,
2013-11-15 09:41:00,45.3,29.5,30.25,NNE,23,0.0,0.0,54,0.00,,,0.00,WUHU216HW,2013-11-15 14:41:00,
2013-11-15 09:47:00,45.6,29.4,30.25,SE,135,0.0,0.0,53,0.00,,,0.00,WUHU216HW,2013-11-15 14:47:00,
2013-11-15 09:52:00,46.2,29.9,30.25,NE,45,0.0,0.0,53,0.00,,,0.00,WUHU216HW,2013-11-15 14:52:00,
2013-11-15 09:57:00,46.5,29.8,30.25,NE,45,0.0,0.0,52,0.00,,,0.00,WUHU216HW,2013-11-15 14:57:00,
2013-11-15 10:02:00,46.9,29.6,30.25,ENE,68,0.0,0.0,51,0.00,,,0.00,WUHU216HW,2013-11-15 15:02:00,
2013-11-15 10:07:00,47.4,29.7,30.24,SW,225,0.0,0.0,50,0.00,,,0.00,WUHU216HW,2013-11-15 15:07:00,
2013-11-15 10:13:00,48.0,29.6,30.25,South,180,0.0,0.0,49,0.00,,,0.00,WUHU216HW,2013-11-15 15:13:00,
2013-11-15 10:18:00,48.2,29.8,30.24,NE,45,0.0,0.0,49,0.00,,,0.00,WUHU216HW,2013-11-15 15:18:00,
2013-11-15 10:24:00,48.3,30.0,30.24,NE,45,0.0,0.0,49,0.00,,,0.00,WUHU216HW,2013-11-15 15:24:00,
2013-11-15 10:29:00,48.3,30.0,30.24,NE,45,0.0,0.0,49,0.00,,,0.00,WUHU216HW,2013-11-15 15:29:00,
2013-11-15 10:35:00,48.7,30.3,30.24,NE,45,0.0,0.0,49,0.00,,,0.00,WUHU216HW,2013-11-15 15:35:00,
2013-11-15 10:41:00,49.1,30.7,30.24,South,180,0.0,0.0,49,0.00,,,0.00,WUHU216HW,2013-11-15 15:41:00,
2013-11-15 10:47:00,49.4,31.0,30.24,SSE,158,0.0,0.0,49,0.00,,,0.00,WUHU216HW,2013-11-15 15:47:00,
2013-11-15 10:52:00,49.8,31.4,30.24,East,90,0.0,0.0,49,0.00,,,0.00,WUHU216HW,2013-11-15 15:52:00,
2013-11-15 10:57:00,50.1,31.2,30.24,WSW,248,0.0,0.0,48,0.00,,,0.00,WUHU216HW,2013-11-15 15:57:00,
2013-11-15 11:03:00,50.5,30.9,30.24,SSE,158,0.0,0.0,47,0.00,,,0.00,WUHU216HW,2013-11-15 16:03:00,
2013-11-15 11:09:00,50.7,31.1,30.23,NNE,23,0.0,0.0,47,0.00,,,0.00,WUHU216HW,2013-11-15 16:09:00,
2013-11-15 11:14:00,50.7,31.1,30.24,ENE,68,0.0,0.0,47,0.00,,,0.00,WUHU216HW,2013-11-15 16:14:00,
2013-11-15 11:20:00,50.9,31.3,30.24,WSW,248,0.0,0.0,47,0.00,,,0.00,WUHU216HW,2013-11-15 16:20:00,
2013-11-15 11:26:00,50.7,31.1,30.24,SSE,158,0.0,0.0,47,0.00,,,0.00,WUHU216HW,2013-11-15 16:26:00,
2013-11-15 11:31:00,50.9,31.3,30.23,SSE,158,0.0,0.0,47,0.00,,,0.00,WUHU216HW,2013-11-15 16:31:00,
2013-11-15 11:37:00,51.4,31.2,30.23,WNW,293,0.0,0.0,46,0.00,,,0.00,WUHU216HW,2013-11-15 16:37:00,
2013-11-15 11:43:00,52.3,31.4,30.23,South,180,0.0,0.0,45,0.00,,,0.00,WUHU216HW,2013-11-15 16:43:00,
2013-11-15 11:49:00,53.0,31.5,30.23,SSW,203,0.0,0.0,44,0.00,,,0.00,WUHU216HW,2013-11-15 16:49:00,
2013-11-15 11:54:00,53.4,31.9,30.23,West,270,0.0,0.0,44,0.00,,,0.00,WUHU216HW,2013-11-15 16:54:00,
2013-11-15 11:59:00,53.9,31.8,30.23,WSW,248,0.0,0.0,43,0.00,,,0.00,WUHU216HW,2013-11-15 16:59:00,
2013-11-15 12:05:00,54.3,32.1,30.22,NW,315,0.0,0.0,43,0.00,,,0.00,WUHU216HW,2013-11-15 17:05:00,
2013-11-15 12:11:00,54.6,31.9,30.22,South,180,0.0,0.0,42,0.00,,,0.00,WUHU216HW,2013-11-15 17:11:00,
2013-11-15 12:17:00,55.2,31.8,30.21,SW,225,7.6,7.6,41,0.00,,,0.00,WUHU216HW,2013-11-15 17:17:00,
2013-11-15 12:23:00,55.2,31.8,30.21,SSW,203,0.0,7.6,41,0.00,,,0.00,WUHU216HW,2013-11-15 17:23:00,
2013-11-15 12:28:00,55.4,32.0,30.21,West,270,0.0,7.6,41,0.00,,,0.00,WUHU216HW,2013-11-15 17:28:00,
2013-11-15 12:33:00,55.5,32.1,30.21,WNW,293,0.0,0.0,41,0.00,,,0.00,WUHU216HW,2013-11-15 17:33:00,
2013-11-15 12:38:00,55.9,32.3,30.21,South,180,0.0,6.9,40,0.00,,,0.00,WUHU216HW,2013-11-15 17:38:00,
2013-11-15 12:43:00,55.9,31.9,30.20,WNW,293,0.0,6.9,40,0.00,,,0.00,WUHU216HW,2013-11-15 17:43:00,
2013-11-15 12:48:00,56.1,32.1,30.20,WNW,293,0.0,0.0,40,0.00,,,0.00,WUHU216HW,2013-11-15 17:48:00,
2013-11-15 12:54:00,56.3,32.2,30.19,WSW,248,0.0,0.0,40,0.00,,,0.00,WUHU216HW,2013-11-15 17:54:00,
2013-11-15 12:59:00,56.4,31.7,30.19,SW,225,0.0,0.0,39,0.00,,,0.00,WUHU216HW,2013-11-15 17:59:00,
2013-11-15 13:04:00,57.0,32.2,30.19,West,270,0.0,0.0,39,0.00,,,0.00,WUHU216HW,2013-11-15 18:04:00,
2013-11-15 13:09:00,57.3,31.8,30.19,SSW,203,0.0,0.0,38,0.00,,,0.00,WUHU216HW,2013-11-15 18:09:00,
2013-11-15 13:14:00,57.3,31.8,30.19,SSW,203,0.0,0.0,38,0.00,,,0.00,WUHU216HW,2013-11-15 18:14:00,
2013-11-15 13:20:00,57.7,32.1,30.18,WSW,248,0.0,0.0,38,0.00,,,0.00,WUHU216HW,2013-11-15 18:20:00,
2013-11-15 13:26:00,57.7,31.4,30.18,South,180,0.0,6.7,37,0.00,,,0.00,WUHU216HW,2013-11-15 18:26:00,
2013-11-15 13:38:00,57.9,31.6,30.18,SSE,158,0.8,6.4,37,0.00,,,0.00,WUHU216HW,2013-11-15 18:38:00,
2013-11-15 13:47:00,57.7,30.7,30.18,South,180,0.0,9.1,36,0.00,,,0.00,WUHU216HW,2013-11-15 18:47:00,
2013-11-15 13:52:00,57.7,30.7,30.18,West,270,0.0,4.2,36,0.00,,,0.00,WUHU216HW,2013-11-15 18:52:00,
2013-11-15 13:58:00,57.9,30.9,30.18,West,270,0.0,0.0,36,0.00,,,0.00,WUHU216HW,2013-11-15 18:58:00,
2013-11-15 14:04:00,57.9,30.9,30.17,North,0,0.0,0.0,36,0.00,,,0.00,WUHU216HW,2013-11-15 19:04:00,
2013-11-15 14:09:00,57.9,30.2,30.17,NNE,23,0.0,3.8,35,0.00,,,0.00,WUHU216HW,2013-11-15 19:09:00,
2013-11-15 14:14:00,57.9,30.9,30.17,WSW,248,0.0,3.8,36,0.00,,,0.00,WUHU216HW,2013-11-15 19:14:00,
2013-11-15 14:19:00,57.9,30.9,30.17,NW,315,7.1,7.1,36,0.00,,,0.00,WUHU216HW,2013-11-15 19:19:00,
2013-11-15 14:25:00,58.1,30.3,30.17,NNW,338,0.0,7.1,35,0.00,,,0.00,WUHU216HW,2013-11-15 19:25:00,
2013-11-15 14:30:00,57.9,30.2,30.17,WSW,248,0.0,7.1,35,0.00,,,0.00,WUHU216HW,2013-11-15 19:30:00,
2013-11-15 14:35:00,57.7,30.7,30.17,SE,135,0.0,0.0,36,0.00,,,0.00,WUHU216HW,2013-11-15 19:35:00,
2013-11-15 14:40:00,57.7,30.7,30.17,WNW,293,0.0,0.0,36,0.00,,,0.00,WUHU216HW,2013-11-15 19:40:00,
2013-11-15 14:46:00,57.5,30.5,30.18,WNW,293,0.0,2.2,36,0.00,,,0.00,WUHU216HW,2013-11-15 19:46:00,
2013-11-15 14:52:00,57.3,30.4,30.18,WSW,248,0.0,2.2,36,0.00,,,0.00,WUHU216HW,2013-11-15 19:52:00,
2013-11-15 14:57:00,57.0,30.1,30.18,WSW,248,0.0,0.0,36,0.00,,,0.00,WUHU216HW,2013-11-15 19:57:00,
2013-11-15 15:02:00,57.0,30.1,30.18,West,270,0.0,0.0,36,0.00,,,0.00,WUHU216HW,2013-11-15 20:02:00,
2013-11-15 15:07:00,56.8,30.6,30.18,WSW,248,0.0,0.0,37,0.00,,,0.00,WUHU216HW,2013-11-15 20:07:00,
2013-11-15 15:12:00,57.0,30.6,30.18,South,180,0.0,2.6,37,0.00,,,0.00,WUHU216HW,2013-11-15 20:12:00,
2013-11-15 15:17:00,57.0,30.8,30.17,SW,225,0.0,2.6,37,0.00,,,0.00,WUHU216HW,2013-11-15 20:17:00,
2013-11-15 15:22:00,57.0,30.8,30.18,SW,225,0.0,0.0,37,0.00,,,0.00,WUHU216HW,2013-11-15 20:22:00,
2013-11-15 15:28:00,57.2,30.9,30.17,WSW,248,4.4,4.4,37,0.00,,,0.00,WUHU216HW,2013-11-15 20:28:00,
2013-11-15 15:33:00,57.3,31.1,30.16,WSW,248,0.0,4.4,37,0.00,,,0.00,WUHU216HW,2013-11-15 20:33:00,
2013-11-15 15:39:00,57.3,31.1,30.16,SSE,158,0.0,4.4,37,0.00,,,0.00,WUHU216HW,2013-11-15 20:39:00,
2013-11-15 15:44:00,57.2,30.9,30.16,SSE,158,0.0,0.0,37,0.00,,,0.00,WUHU216HW,2013-11-15 20:44:00,
2013-11-15 15:49:00,57.0,31.5,30.16,ENE,68,0.0,0.0,38,0.00,,,0.00,WUHU216HW,2013-11-15 20:49:00,
2013-11-15 15:55:00,56.8,30.6,30.16,ENE,68,0.0,0.0,37,0.00,,,0.00,WUHU216HW,2013-11-15 20:55:00,
2013-11-15 16:01:00,56.8,31.3,30.16,ENE,68,0.0,0.0,38,0.00,,,0.00,WUHU216HW,2013-11-15 21:01:00,
2013-11-15 16:06:00,56.4,31.0,30.16,ENE,68,0.0,0.0,38,0.00,,,0.00,WUHU216HW,2013-11-15 21:06:00,
2013-11-15 16:11:00,56.1,31.4,30.16,ENE,68,0.0,0.0,39,0.00,,,0.00,WUHU216HW,2013-11-15 21:11:00,
2013-11-15 16:17:00,55.7,31.0,30.16,ENE,68,0.0,0.0,39,0.00,,,0.00,WUHU216HW,2013-11-15 21:17:00,
2013-11-15 16:23:00,55.4,31.4,30.16,ENE,68,0.0,0.0,40,0.00,,,0.00,WUHU216HW,2013-11-15 21:23:00,
2013-11-15 16:28:00,55.2,31.2,30.16,ENE,68,0.0,0.0,40,0.00,,,0.00,WUHU216HW,2013-11-15 21:28:00,
2013-11-15 16:33:00,55.0,31.1,30.16,ENE,68,0.0,0.0,40,0.00,,,0.00,WUHU216HW,2013-11-15 21:33:00,
2013-11-15 16:38:00,54.5,31.2,30.16,ENE,68,0.0,0.0,41,0.00,,,0.00,WUHU216HW,2013-11-15 21:38:00,
2013-11-15 16:43:00,54.3,31.0,30.16,ENE,68,0.0,0.0,41,0.00,,,0.00,WUHU216HW,2013-11-15 21:43:00,
2013-11-15 16:48:00,53.7,31.1,30.16,ENE,68,0.0,0.0,42,0.00,,,0.00,WUHU216HW,2013-11-15 21:48:00,
2013-11-15 16:54:00,53.4,31.3,30.16,ENE,68,0.0,0.0,43,0.00,,,0.00,WUHU216HW,2013-11-15 21:54:00,
2013-11-15 16:59:00,53.2,31.1,30.16,ENE,68,0.0,0.0,43,0.00,,,0.00,WUHU216HW,2013-11-15 21:59:00,
2013-11-15 17:04:00,52.8,31.4,30.16,ENE,68,0.0,0.0,44,0.00,,,0.00,WUHU216HW,2013-11-15 22:04:00,
2013-11-15 17:09:00,52.5,31.1,30.16,ENE,68,0.0,0.0,44,0.00,,,0.00,WUHU216HW,2013-11-15 22:09:00,
2013-11-15 17:15:00,52.1,30.7,30.16,ENE,68,0.0,0.0,44,0.00,,,0.00,WUHU216HW,2013-11-15 22:15:00,
2013-11-15 17:20:00,51.8,30.4,30.16,ENE,68,0.0,0.0,44,0.00,,,0.00,WUHU216HW,2013-11-15 22:20:00,
2013-11-15 17:25:00,51.4,30.6,30.16,ENE,68,0.0,0.0,45,0.00,,,0.00,WUHU216HW,2013-11-15 22:25:00,
2013-11-15 17:31:00,51.0,30.3,30.16,ENE,68,0.0,0.0,45,0.00,,,0.00,WUHU216HW,2013-11-15 22:31:00,
2013-11-15 17:36:00,50.7,30.5,30.16,ENE,68,0.0,0.0,46,0.00,,,0.00,WUHU216HW,2013-11-15 22:36:00,
2013-11-15 17:42:00,50.5,30.4,30.16,ENE,68,0.0,0.0,46,0.00,,,0.00,WUHU216HW,2013-11-15 22:42:00,
2013-11-15 17:47:00,50.1,30.6,30.16,ENE,68,0.0,0.0,47,0.00,,,0.00,WUHU216HW,2013-11-15 22:47:00,
2013-11-15 17:53:00,49.8,30.3,30.17,ENE,68,0.0,0.0,47,0.00,,,0.00,WUHU216HW,2013-11-15 22:53:00,
2013-11-15 17:59:00,49.8,30.8,30.17,ENE,68,0.0,0.0,48,0.00,,,0.00,WUHU216HW,2013-11-15 22:59:00,
2013-11-15 18:05:00,49.6,30.7,30.17,ENE,68,0.0,0.0,48,0.00,,,0.00,WUHU216HW,2013-11-15 23:05:00,
2013-11-15 18:11:00,49.6,30.7,30.17,ENE,68,0.0,0.0,48,0.00,,,0.00,WUHU216HW,2013-11-15 23:11:00,
2013-11-15 18:16:00,49.6,31.2,30.18,ENE,68,0.0,0.0,49,0.00,,,0.00,WUHU216HW,2013-11-15 23:16:00,
2013-11-15 18:21:00,49.2,30.9,30.18,ENE,68,0.0,0.0,49,0.00,,,0.00,WUHU216HW,2013-11-15 23:21:00,
2013-11-15 18:26:00,49.2,30.9,30.18,ENE,68,0.0,0.0,49,0.00,,,0.00,WUHU216HW,2013-11-15 23:26:00,
2013-11-15 18:31:00,49.2,30.9,30.18,ENE,68,0.0,0.0,49,0.00,,,0.00,WUHU216HW,2013-11-15 23:31:00,
2013-11-15 18:36:00,49.1,31.2,30.18,ENE,68,0.0,0.0,50,0.00,,,0.00,WUHU216HW,2013-11-15 23:36:00,
2013-11-15 18:42:00,48.9,31.1,30.18,ENE,68,0.0,0.0,50,0.00,,,0.00,WUHU216HW,2013-11-15 23:42:00,
2013-11-15 18:47:00,48.9,31.1,30.18,ENE,68,0.0,0.0,50,0.00,,,0.00,WUHU216HW,2013-11-15 23:47:00,
2013-11-15 18:53:00,48.7,30.9,30.18,ENE,68,0.0,0.0,50,0.00,,,0.00,WUHU216HW,2013-11-15 23:53:00,
2013-11-15 18:59:00,48.7,30.9,30.18,ENE,68,0.0,0.0,50,0.00,,,0.00,WUHU216HW,2013-11-15 23:59:00,
2013-11-15 19:04:00,48.3,31.0,30.18,ENE,68,0.0,0.0,51,0.00,,,0.00,WUHU216HW,2013-11-16 00:04:00,
2013-11-15 19:09:00,48.3,31.0,30.18,ENE,68,0.0,0.0,51,0.00,,,0.00,WUHU216HW,2013-11-16 00:09:00,
2013-11-15 19:15:00,48.2,30.8,30.18,ENE,68,0.0,0.0,51,0.00,,,0.00,WUHU216HW,2013-11-16 00:15:00,
2013-11-15 19:20:00,48.0,30.6,30.18,ENE,68,0.0,0.0,51,0.00,,,0.00,WUHU216HW,2013-11-16 00:20:00,
2013-11-15 19:25:00,48.0,30.6,30.18,ENE,68,0.0,0.0,51,0.00,,,0.00,WUHU216HW,2013-11-16 00:25:00,
2013-11-15 19:30:00,48.0,31.1,30.19,ENE,68,0.0,0.0,52,0.00,,,0.00,WUHU216HW,2013-11-16 00:30:00,
2013-11-15 19:35:00,48.0,31.1,30.19,ENE,68,0.0,0.0,52,0.00,,,0.00,WUHU216HW,2013-11-16 00:35:00,
2013-11-15 19:40:00,48.0,31.6,30.20,SE,135,0.0,6.0,53,0.00,,,0.00,WUHU216HW,2013-11-16 00:40:00,
2013-11-15 19:45:00,48.3,32.4,30.19,SE,135,0.0,6.0,54,0.00,,,0.00,WUHU216HW,2013-11-16 00:45:00,
2013-11-15 19:51:00,48.7,32.7,30.19,SE,135,0.0,0.0,54,0.00,,,0.00,WUHU216HW,2013-11-16 00:51:00,
2013-11-15 19:56:00,48.9,32.9,30.19,SE,135,0.0,0.0,54,0.00,,,0.00,WUHU216HW,2013-11-16 00:56:00,
2013-11-15 20:01:00,48.7,33.2,30.18,SE,135,0.0,0.0,55,0.00,,,0.00,WUHU216HW,2013-11-16 01:01:00,
2013-11-15 20:07:00,49.1,33.5,30.18,WSW,248,0.0,4.9,55,0.00,,,0.00,WUHU216HW,2013-11-16 01:07:00,
2013-11-15 20:12:00,49.2,33.7,30.18,WSW,248,0.0,4.9,55,0.00,,,0.00,WUHU216HW,2013-11-16 01:12:00,
2013-11-15 20:17:00,49.2,33.7,30.18,WSW,248,0.0,0.0,55,0.00,,,0.00,WUHU216HW,2013-11-16 01:17:00,
2013-11-15 20:22:00,49.2,34.1,30.18,WSW,248,0.0,0.0,56,0.00,,,0.00,WUHU216HW,2013-11-16 01:22:00,
2013-11-15 20:28:00,49.1,34.0,30.19,WSW,248,0.0,0.0,56,0.00,,,0.00,WUHU216HW,2013-11-16 01:28:00,
2013-11-15 20:33:00,49.1,34.4,30.19,WSW,248,0.0,0.0,57,0.00,,,0.00,WUHU216HW,2013-11-16 01:33:00,
2013-11-15 20:38:00,48.9,34.3,30.19,WSW,248,0.0,0.0,57,0.00,,,0.00,WUHU216HW,2013-11-16 01:38:00,
2013-11-15 20:43:00,48.7,34.6,30.20,WSW,248,0.0,0.0,58,0.00,,,0.00,WUHU216HW,2013-11-16 01:43:00,
2013-11-15 20:48:00,48.9,34.7,30.19,WSW,248,0.0,0.0,58,0.00,,,0.00,WUHU216HW,2013-11-16 01:48:00,
2013-11-15 20:54:00,48.9,34.7,30.19,WSW,248,0.0,0.0,58,0.00,,,0.00,WUHU216HW,2013-11-16 01:54:00,
2013-11-15 21:00:00,48.7,34.6,30.20,WSW,248,0.0,0.0,58,0.00,,,0.00,WUHU216HW,2013-11-16 02:00:00,
2013-11-15 21:06:00,48.5,34.4,30.19,WSW,248,0.0,0.0,58,0.00,,,0.00,WUHU216HW,2013-11-16 02:06:00,
2013-11-15 21:11:00,48.5,34.4,30.19,WSW,248,0.0,0.0,58,0.00,,,0.00,WUHU216HW,2013-11-16 02:11:00,
2013-11-15 21:16:00,48.3,34.2,30.19,WSW,248,0.0,0.0,58,0.00,,,0.00,WUHU216HW,2013-11-16 02:16:00,
2013-11-15 21:21:00,48.0,33.9,30.19,WSW,248,0.0,0.0,58,0.00,,,0.00,WUHU216HW,2013-11-16 02:21:00,
2013-11-15 21:26:00,48.0,33.9,30.19,WSW,248,0.0,0.0,58,0.00,,,0.00,WUHU216HW,2013-11-16 02:26:00,
2013-11-15 21:32:00,48.0,34.4,30.19,WSW,248,0.0,0.0,59,0.00,,,0.00,WUHU216HW,2013-11-16 02:32:00,
2013-11-15 21:37:00,47.8,34.2,30.19,WSW,248,0.0,0.0,59,0.00,,,0.00,WUHU216HW,2013-11-16 02:37:00,
2013-11-15 21:42:00,47.6,34.0,30.19,WSW,248,0.0,0.0,59,0.00,,,0.00,WUHU216HW,2013-11-16 02:42:00,
2013-11-15 21:47:00,47.4,33.8,30.20,WSW,248,0.0,0.0,59,0.00,,,0.00,WUHU216HW,2013-11-16 02:47:00,
2013-11-15 21:53:00,47.4,34.3,30.20,WSW,248,0.0,0.0,60,0.00,,,0.00,WUHU216HW,2013-11-16 02:53:00,
2013-11-15 21:59:00,47.4,34.3,30.21,WSW,248,0.0,0.0,60,0.00,,,0.00,WUHU216HW,2013-11-16 02:59:00,
2013-11-15 22:04:00,47.4,34.3,30.21,WSW,248,0.0,0.0,60,0.00,,,0.00,WUHU216HW,2013-11-16 03:04:00,
2013-11-15 22:09:00,47.4,34.7,30.21,WSW,248,0.0,0.0,61,0.00,,,0.00,WUHU216HW,2013-11-16 03:09:00,
2013-11-15 22:14:00,47.4,34.7,30.21,WSW,248,0.0,0.0,61,0.00,,,0.00,WUHU216HW,2013-11-16 03:14:00,
2013-11-15 22:19:00,47.4,34.7,30.21,WSW,248,0.0,0.0,61,0.00,,,0.00,WUHU216HW,2013-11-16 03:19:00,
2013-11-15 22:24:00,47.4,34.7,30.21,WSW,248,0.0,0.0,61,0.00,,,0.00,WUHU216HW,2013-11-16 03:24:00,
2013-11-15 22:30:00,47.4,35.0,30.21,WSW,248,0.0,0.0,62,0.00,,,0.00,WUHU216HW,2013-11-16 03:30:00,
2013-11-15 22:35:00,47.6,35.2,30.22,WSW,248,0.0,0.0,62,0.00,,,0.00,WUHU216HW,2013-11-16 03:35:00,
2013-11-15 22:41:00,47.4,35.4,30.22,WSW,248,0.0,0.0,63,0.00,,,0.00,WUHU216HW,2013-11-16 03:41:00,
2013-11-15 22:47:00,47.4,35.8,30.21,WSW,248,0.0,0.0,64,0.00,,,0.00,WUHU216HW,2013-11-16 03:47:00,
2013-11-15 22:52:00,47.3,36.0,30.22,WSW,248,0.0,0.0,65,0.00,,,0.00,WUHU216HW,2013-11-16 03:52:00,
2013-11-15 22:57:00,47.1,35.9,30.22,WSW,248,0.0,0.0,65,0.00,,,0.00,WUHU216HW,2013-11-16 03:57:00,
2013-11-15 23:03:00,47.1,35.9,30.22,WSW,248,0.0,0.0,65,0.00,,,0.00,WUHU216HW,2013-11-16 04:03:00,
2013-11-15 23:09:00,46.9,36.5,30.23,WSW,248,0.0,0.0,67,0.00,,,0.00,WUHU216HW,2013-11-16 04:09:00,
2013-11-15 23:14:00,46.7,35.9,30.23,WSW,248,0.0,0.0,66,0.00,,,0.00,WUHU216HW,2013-11-16 04:14:00,
2013-11-15 23:19:00,46.7,35.9,30.23,WSW,248,0.0,0.0,66,0.00,,,0.00,WUHU216HW,2013-11-16 04:19:00,
2013-11-15 23:25:00,46.7,36.3,30.23,WSW,248,0.0,0.0,67,0.00,,,0.00,WUHU216HW,2013-11-16 04:25:00,
2013-11-15 23:30:00,46.5,36.9,30.23,WSW,248,0.0,0.0,69,0.00,,,0.00,WUHU216HW,2013-11-16 04:30:00,
2013-11-15 23:35:00,46.5,36.9,30.23,WSW,248,0.0,0.0,69,0.00,,,0.00,WUHU216HW,2013-11-16 04:35:00,
2013-11-15 23:40:00,46.2,37.0,30.23,WSW,248,0.0,0.0,70,0.00,,,0.00,WUHU216HW,2013-11-16 04:40:00,
2013-11-15 23:46:00,46.2,37.3,30.23,WSW,248,0.0,0.0,71,0.00,,,0.00,WUHU216HW,2013-11-16 04:46:00,
2013-11-15 23:51:00,46.2,37.3,30.23,WSW,248,0.0,0.0,71,0.00,,,0.00,WUHU216HW,2013-11-16 04:51:00,
2013-11-15 23:57:00,46.0,37.5,30.23,WSW,248,0.0,0.0,72,0.00,,,0.00,WUHU216HW,2013-11-16 04:57:00,